Time;durP1;ratioP1;P1;durP2;ratioP2;P2;SDS_P1;SDS_P2;PMS_P1;PMS_P2;Temp;Humidity;BMP_temperature;BMP_pressure;BME280_temperature;BME280_humidity;BME280_pressure;Samples;Min_cycle;Max_cycle;Signal;HPM_P1;HPM_P2
2022/06/28 00:01:53;;;;;;;;;;;;;;;;;;5065825;28;20352;-83
2022/06/28 00:04:19;;;;;;;;;;;;;;;;;;5061259;28;19944;-82
2022/06/28 00:06:45;;;;;;;;;;;;;;;;;;5066980;28;19944;-83
2022/06/28 00:09:11;;;;;;;;;;;;;;;;;;5066879;28;19944;-81
2022/06/28 00:11:38;;;;;;;;;;;;;;;;;;5064335;28;19959;-83
2022/06/28 00:16:04;;;;;;;;;;;;;;;;;;5061000;28;19947;-82
2022/06/28 00:16:50;;;;;;;;;;;;;;;;;;5056961;28;20757;-82
2022/06/28 00:19:16;;;;;;;;;;;;;;;;;;5062571;28;20013;-82
2022/06/28 00:21:43;;;;;;;;;;;;;;;;;;5067002;28;19917;-82
2022/06/28 00:24:09;;;;;;;;;;;;;;;;;;5066822;28;19948;-82
2022/06/28 00:26:35;;;;;;;;;;;;;;;;;;5065935;28;19917;-82
2022/06/28 00:29:01;;;;;;;;;;;;;;;;;;5062177;28;19994;-82
2022/06/28 00:31:27;;;;;;;;;;;;;;;;;;5059548;28;19960;-82
2022/06/28 00:33:54;;;;;;;;;;;;;;;;;;5050896;28;19955;-82
2022/06/28 00:36:20;;;;;;;;;;;;;;;;;;5060277;28;20243;-82
2022/06/28 00:38:46;;;;;;;;;;;;;;;;;;5062546;28;19959;-82
2022/06/28 00:41:12;;;;;;;;;;;;;;;;;;5067282;28;19955;-81
2022/06/28 00:43:38;;;;;;;;;;;;;;;;;;5057010;28;20426;-82
2022/06/28 00:46:04;;;;;;;;;;;;;;;;;;5065251;28;19920;-82
2022/06/28 00:48:31;;;;;;;;;;;;;;;;;;5051240;28;19967;-82
2022/06/28 00:50:57;;;;;;;;;;;;;;;;;;5062053;28;19916;-82
2022/06/28 00:53:23;;;;;;;;;;;;;;;;;;5050654;28;19984;-80
2022/06/28 00:55:49;;;;;;;;;;;;;;;;;;5050157;28;20373;-82
2022/06/28 00:58:15;;;;;;;;;;;;;;;;;;5054019;28;19952;-82
2022/06/28 01:00:42;;;;;;;;;;;;;;;;;;5055417;28;20397;-82
2022/06/28 01:03:08;;;;;;;;;;;;;;;;;;5059231;28;19955;-82
2022/06/28 01:05:34;;;;;;;;;;;;;;;;;;5061922;28;19979;-81
2022/06/28 01:08:00;;;;;;;;;;;;;;;;;;5061308;28;19923;-82
2022/06/28 01:10:26;;;;;;;;;;;;;;;;;;5048947;28;19955;-81
2022/06/28 01:12:53;;;;;;;;;;;;;;;;;;5065492;28;19951;-82
2022/06/28 01:15:19;;;;;;;;;;;;;;;;;;5064449;28;19944;-81
2022/06/28 01:17:46;;;;;;;;;;;;;;;;;;5056425;28;19963;-82
2022/06/28 01:20:12;;;;;;;;;;;;;;;;;;5060823;28;19960;-81
2022/06/28 01:22:38;;;;;;;;;;;;;;;;;;5058594;28;19952;-81
2022/06/28 01:25:04;;;;;;;;;;;;;;;;;;5065413;28;20649;-82
2022/06/28 01:27:30;;;;;;;;;;;;;;;;;;5065482;28;19972;-82
2022/06/28 01:29:56;;;;;;;;;;;;;;;;;;5051931;28;19952;-82
2022/06/28 01:32:24;;;;;;;;;;;;;;;;;;5064398;28;19948;-81
2022/06/28 01:34:50;;;;;;;;;;;;;;;;;;5061281;28;20376;-82
2022/06/28 01:37:16;;;;;;;;;;;;;;;;;;5062984;28;19956;-81
2022/06/28 01:39:42;;;;;;;;;;;;;;;;;;5054824;28;20341;-81
2022/06/28 01:42:08;;;;;;;;;;;;;;;;;;5066380;28;19948;-82
2022/06/28 01:44:34;;;;;;;;;;;;;;;;;;5047712;28;19955;-81
2022/06/28 01:47:01;;;;;;;;;;;;;;;;;;5065831;28;19968;-82
2022/06/28 01:49:27;;;;;;;;;;;;;;;;;;5033451;28;19952;-81
2022/06/28 01:51:53;;;;;;;;;;;;;;;;;;5059944;28;20420;-81
2022/06/28 01:54:19;;;;;;;;;;;;;;;;;;5048504;28;19948;-81
2022/06/28 01:56:45;;;;;;;;;;;;;;;;;;5064295;28;19967;-82
2022/06/28 01:59:12;;;;;;;;;;;;;;;;;;5066607;28;20419;-81
2022/06/28 02:01:38;;;;;;;;;;;;;;;;;;5064122;28;19948;-81
2022/06/28 02:04:04;;;;;;;;;;;;;;;;;;5065524;28;19976;-81
2022/06/28 02:06:30;;;;;;;;;;;;;;;;;;5047184;28;20179;-81
2022/06/28 02:08:56;;;;;;;;;;;;;;;;;;5064583;28;19944;-80
2022/06/28 02:11:23;;;;;;;;;;;;;;;;;;5057599;28;20368;-81
2022/06/28 02:13:49;;;;;;;;;;;;;;;;;;5060649;28;19952;-81
2022/06/28 02:16:15;;;;;;;;;;;;;;;;;;5063566;28;20363;-82
2022/06/28 02:18:41;;;;;;;;;;;;;;;;;;5061457;28;19917;-82
2022/06/28 02:21:07;;;;;;;;;;;;;;;;;;5051217;28;20392;-82
2022/06/28 02:23:33;;;;;;;;;;;;;;;;;;5066470;28;19944;-82
2022/06/28 02:26:01;;;;;;;;;;;;;;;;;;5055478;28;20335;-82
2022/06/28 02:28:27;;;;;;;;;;;;;;;;;;5063950;28;19955;-82
2022/06/28 02:30:53;;;;;;;;;;;;;;;;;;5049735;28;19951;-82
2022/06/28 02:33:19;;;;;;;;;;;;;;;;;;5066668;28;20396;-82
2022/06/28 02:41:15;;;;;;;;;;;;;;;;;;5057905;28;19959;-81
2022/06/28 02:43:42;;;;;;;;;;;;;;;;;;5057289;28;19956;-82
2022/06/28 02:46:08;;;;;;;;;;;;;;;;;;5067495;28;19952;-82
2022/06/28 02:48:34;;;;;;;;;;;;;;;;;;5062484;28;19944;-82
2022/06/28 02:51:00;;;;;;;;;;;;;;;;;;5064540;28;19972;-82
2022/06/28 02:53:26;;;;;;;;;;;;;;;;;;5057865;28;19960;-82
2022/06/28 02:55:53;;;;;;;;;;;;;;;;;;5061808;28;20020;-83
2022/06/28 02:58:19;;;;;;;;;;;;;;;;;;5066030;28;19955;-82
2022/06/28 03:00:45;;;;;;;;;;;;;;;;;;5062027;28;19944;-83
2022/06/28 03:03:11;;;;;;;;;;;;;;;;;;5064254;28;19967;-82
2022/06/28 03:05:37;;;;;;;;;;;;;;;;;;5057282;28;19948;-82
2022/06/28 03:08:03;;;;;;;;;;;;;;;;;;5058905;28;19963;-82
2022/06/28 03:10:30;;;;;;;;;;;;;;;;;;5062991;28;19948;-82
2022/06/28 03:12:56;;;;;;;;;;;;;;;;;;5066508;28;19952;-82
2022/06/28 03:15:22;;;;;;;;;;;;;;;;;;5051406;28;19952;-81
2022/06/28 03:17:48;;;;;;;;;;;;;;;;;;5069860;28;19952;-82
2022/06/28 03:20:14;;;;;;;;;;;;;;;;;;5068785;28;19975;-82
2022/06/28 03:22:41;;;;;;;;;;;;;;;;;;5062991;28;19917;-82
2022/06/28 03:25:07;;;;;;;;;;;;;;;;;;5068870;28;19963;-82
2022/06/28 03:27:33;;;;;;;;;;;;;;;;;;5061869;28;19955;-82
2022/06/28 03:29:59;;;;;;;;;;;;;;;;;;5061526;28;20021;-82
2022/06/28 03:32:25;;;;;;;;;;;;;;;;;;5064319;28;19948;-82
2022/06/28 03:34:51;;;;;;;;;;;;;;;;;;5067283;28;19966;-82
2022/06/28 03:37:18;;;;;;;;;;;;;;;;;;5068288;28;19955;-81
2022/06/28 03:39:44;;;;;;;;;;;;;;;;;;5065973;28;19956;-82
2022/06/28 03:42:10;;;;;;;;;;;;;;;;;;5047321;28;19955;-82
2022/06/28 03:44:36;;;;;;;;;;;;;;;;;;5054693;28;20666;-82
2022/06/28 03:47:03;;;;;;;;;;;;;;;;;;5070038;28;19959;-82
2022/06/28 03:49:29;;;;;;;;;;;;;;;;;;5067253;28;19986;-82
2022/06/28 03:51:55;;;;;;;;;;;;;;;;;;5060894;28;19944;-82
2022/06/28 03:54:21;;;;;;;;;;;;;;;;;;5056162;28;20439;-81
2022/06/28 03:56:47;;;;;;;;;;;;;;;;;;5056387;28;20015;-82
2022/06/28 03:59:14;;;;;;;;;;;;;;;;;;5067456;28;19912;-81
2022/06/28 04:01:40;;;;;;;;;;;;;;;;;;5051216;28;19997;-82
2022/06/28 04:04:06;;;;;;;;;;;;;;;;;;5045849;28;19983;-82
2022/06/28 04:06:32;;;;;;;;;;;;;;;;;;5057102;28;19956;-82
2022/06/28 04:08:59;;;;;;;;;;;;;;;;;;5056775;28;20390;-82
2022/06/28 04:11:26;;;;;;;;;;;;;;;;;;5067153;28;19951;-81
2022/06/28 04:13:52;;;;;;;;;;;;;;;;;;5063333;28;19963;-82
2022/06/28 04:16:18;;;;;;;;;;;;;;;;;;5061584;28;19971;-81
2022/06/28 04:18:45;;;;;;;;;;;;;;;;;;5057059;28;19951;-82
2022/06/28 04:21:11;;;;;;;;;;;;;;;;;;5061284;28;19959;-82
2022/06/28 04:23:37;;;;;;;;;;;;;;;;;;5048299;28;20078;-82
2022/06/28 04:26:03;;;;;;;;;;;;;;;;;;5066545;28;20332;-81
2022/06/28 04:28:29;;;;;;;;;;;;;;;;;;5060213;28;19988;-82
2022/06/28 04:30:56;;;;;;;;;;;;;;;;;;5061386;28;19951;-81
2022/06/28 04:33:22;;;;;;;;;;;;;;;;;;5064267;28;20006;-81
2022/06/28 04:35:48;;;;;;;;;;;;;;;;;;5057192;28;20357;-80
2022/06/28 04:38:14;;;;;;;;;;;;;;;;;;5064041;28;19952;-81
2022/06/28 04:40:40;;;;;;;;;;;;;;;;;;5056732;28;20010;-81
2022/06/28 04:43:07;;;;;;;;;;;;;;;;;;5058422;28;19952;-81
2022/06/28 04:45:33;;;;;;;;;;;;;;;;;;5059390;28;19948;-81
2022/06/28 04:47:59;;;;;;;;;;;;;;;;;;5052904;28;19948;-81
2022/06/28 04:50:25;;;;;;;;;;;;;;;;;;5057393;28;19990;-82
2022/06/28 04:52:51;;;;;;;;;;;;;;;;;;5061683;28;19952;-82
2022/06/28 04:55:18;;;;;;;;;;;;;;;;;;5050891;28;20419;-80
2022/06/28 04:57:44;;;;;;;;;;;;;;;;;;5062413;28;19955;-80
2022/06/28 05:00:10;;;;;;;;;;;;;;;;;;5053559;28;19955;-82
2022/06/28 05:02:36;;;;;;;;;;;;;;;;;;5063679;28;20478;-82
2022/06/28 05:05:03;;;;;;;;;;;;;;;;;;5067857;28;20375;-80
2022/06/28 05:07:29;;;;;;;;;;;;;;;;;;5061585;28;19952;-81
2022/06/28 05:09:55;;;;;;;;;;;;;;;;;;5064078;28;20414;-81
2022/06/28 05:12:21;;;;;;;;;;;;;;;;;;5057318;28;20017;-81
2022/06/28 05:14:47;;;;;;;;;;;;;;;;;;5054075;28;19945;-81
2022/06/28 05:17:14;;;;;;;;;;;;;;;;;;5050159;28;20348;-80
2022/06/28 05:19:40;;;;;;;;;;;;;;;;;;5060726;28;19959;-81
2022/06/28 05:22:08;;;;;;;;;;;;;;;;;;5061083;28;19983;-81
2022/06/28 05:24:34;;;;;;;;;;;;;;;;;;5057673;28;20367;-81
2022/06/28 05:27:00;;;;;;;;;;;;;;;;;;5054142;28;19967;-81
2022/06/28 05:29:26;;;;;;;;;;;;;;;;;;5054711;28;19956;-81
2022/06/28 05:31:52;;;;;;;;;;;;;;;;;;5057505;28;19948;-81
2022/06/28 05:34:18;;;;;;;;;;;;;;;;;;5055144;28;19966;-80
2022/06/28 05:36:45;;;;;;;;;;;;;;;;;;5058023;28;19963;-81
2022/06/28 05:39:11;;;;;;;;;;;;;;;;;;5049807;28;19952;-81
2022/06/28 05:41:38;;;;;;;;;;;;;;;;;;5056637;28;21582;-81
2022/06/28 05:44:04;;;;;;;;;;;;;;;;;;5063450;28;19956;-81
2022/06/28 05:46:32;;;;;;;;;;;;;;;;;;5049762;28;20242;-81
2022/06/28 05:48:59;;;;;;;;;;;;;;;;;;5050603;28;19960;-81
2022/06/28 05:51:25;;;;;;;;;;;;;;;;;;5048464;28;19961;-81
2022/06/28 05:53:51;;;;;;;;;;;;;;;;;;5061607;28;19948;-81
2022/06/28 05:56:17;;;;;;;;;;;;;;;;;;5052395;28;19964;-81
2022/06/28 05:58:43;;;;;;;;;;;;;;;;;;5061215;28;19919;-81
2022/06/28 06:01:10;;;;;;;;;;;;;;;;;;5064855;28;21168;-81
2022/06/28 06:03:38;;;;;;;;;;;;;;;;;;5045935;28;24307;-80
2022/06/28 06:06:04;;;;;;;;;;;;;;;;;;5056881;28;19994;-81
2022/06/28 06:08:30;;;;;;;;;;;;;;;;;;5052407;28;19940;-81
2022/06/28 06:10:56;;;;;;;;;;;;;;;;;;5056883;28;19964;-81
2022/06/28 06:13:22;;;;;;;;;;;;;;;;;;5060391;28;19952;-81
2022/06/28 06:15:49;;;;;;;;;;;;;;;;;;5048679;28;19947;-81
2022/06/28 06:18:15;;;;;;;;;;;;;;;;;;5052075;28;20509;-80
2022/06/28 06:20:41;;;;;;;;;;;;;;;;;;5060214;28;19940;-81
2022/06/28 06:23:07;;;;;;;;;;;;;;;;;;5046911;28;20029;-81
2022/06/28 06:25:33;;;;;;;;;;;;;;;;;;5061212;28;20286;-81
2022/06/28 06:28:00;;;;;;;;;;;;;;;;;;5058224;28;19913;-81
2022/06/28 06:30:27;;;;;;;;;;;;;;;;;;5052632;28;19951;-81
2022/06/28 06:32:53;;;;;;;;;;;;;;;;;;5067162;28;19913;-81
2022/06/28 06:35:19;;;;;;;;;;;;;;;;;;5063539;28;19955;-81
2022/06/28 06:37:46;;;;;;;;;;;;;;;;;;5047392;28;19959;-81
2022/06/28 06:40:12;;;;;;;;;;;;;;;;;;5065303;28;19986;-81
2022/06/28 06:42:38;;;;;;;;;;;;;;;;;;5053655;28;21366;-81
2022/06/28 06:45:04;;;;;;;;;;;;;;;;;;5066024;28;19960;-81
2022/06/28 06:47:30;;;;;;;;;;;;;;;;;;5047075;28;19970;-81
2022/06/28 06:49:57;;;;;;;;;;;;;;;;;;5066751;28;20381;-81
2022/06/28 06:52:23;;;;;;;;;;;;;;;;;;5046938;28;19959;-81
2022/06/28 06:54:49;;;;;;;;;;;;;;;;;;5060330;28;19944;-81
2022/06/28 06:57:15;;;;;;;;;;;;;;;;;;5056772;28;19960;-80
2022/06/28 06:59:41;;;;;;;;;;;;;;;;;;5055641;28;19956;-81
2022/06/28 07:02:08;;;;;;;;;;;;;;;;;;5066511;28;20562;-81
2022/06/28 07:04:34;;;;;;;;;;;;;;;;;;5061094;28;19956;-81
2022/06/28 07:07:00;;;;;;;;;;;;;;;;;;5046010;28;19963;-81
2022/06/28 07:09:26;;;;;;;;;;;;;;;;;;5053725;28;19947;-81
2022/06/28 07:11:53;;;;;;;;;;;;;;;;;;5055914;28;20560;-81
2022/06/28 07:14:19;;;;;;;;;;;;;;;;;;5064481;28;19956;-81
2022/06/28 07:16:45;;;;;;;;;;;;;;;;;;5066875;28;19952;-82
2022/06/28 07:19:13;;;;;;;;;;;;;;;;;;5065103;28;19921;-81
2022/06/28 07:21:40;;;;;;;;;;;;;;;;;;5063989;28;20347;-81
2022/06/28 07:24:07;;;;;;;;;;;;;;;;;;5062410;28;19940;-81
2022/06/28 07:26:35;;;;;;;;;;;;;;;;;;5061224;28;19962;-81
2022/06/28 07:29:01;;;;;;;;;;;;;;;;;;5062963;28;19944;-81
2022/06/28 07:31:30;;;;;;;;;;;;;;;;;;5069289;28;19948;-81
2022/06/28 07:33:56;;;;;;;;;;;;;;;;;;5068270;28;19951;-81
2022/06/28 07:36:23;;;;;;;;;;;;;;;;;;5049393;28;19925;-81
2022/06/28 07:38:49;;;;;;;;;;;;;;;;;;5065583;28;19956;-81
2022/06/28 07:41:15;;;;;;;;;;;;;;;;;;5059561;28;19943;-81
2022/06/28 07:43:41;;;;;;;;;;;;;;;;;;5064588;28;19956;-81
2022/06/28 07:46:07;;;;;;;;;;;;;;;;;;5044785;28;19947;-81
2022/06/28 07:48:33;;;;;;;;;;;;;;;;;;5071109;28;19923;-81
2022/06/28 07:53:44;;;;;;;;;;;;;;;;;;5064613;28;19913;-82
2022/06/28 07:56:11;;;;;;;;;;;;;;;;;;5078686;28;19934;-81
2022/06/28 07:58:39;;;;;;;;;;;;;;;;;;5077228;28;19972;-82
2022/06/28 08:01:06;;;;;;;;;;;;;;;;;;5072142;28;19916;-81
2022/06/28 08:03:32;;;;;;;;;;;;;;;;;;5063695;28;21533;-82
2022/06/28 08:05:58;;;;;;;;;;;;;;;;;;5060998;28;19948;-82
2022/06/28 08:08:24;;;;;;;;;;;;;;;;;;5055536;28;20339;-81
2022/06/28 08:10:51;;;;;;;;;;;;;;;;;;5069158;28;19955;-82
2022/06/28 08:13:17;;;;;;;;;;;;;;;;;;5062717;28;20040;-82
2022/06/28 08:15:43;;;;;;;;;;;;;;;;;;5067723;28;20340;-82
2022/06/28 08:18:10;;;;;;;;;;;;;;;;;;5050763;28;19921;-82
2022/06/28 08:20:36;;;;;;;;;;;;;;;;;;5058167;28;19959;-83
2022/06/28 08:23:02;;;;;;;;;;;;;;;;;;5068899;28;20349;-82
2022/06/28 08:25:28;;;;;;;;;;;;;;;;;;5048729;28;19989;-82
2022/06/28 08:27:54;;;;;;;;;;;;;;;;;;5065283;28;19959;-82
2022/06/28 08:30:21;;;;;;;;;;;;;;;;;;5041889;28;19948;-82
2022/06/28 08:32:47;;;;;;;;;;;;;;;;;;5068749;28;19952;-82
2022/06/28 08:35:13;;;;;;;;;;;;;;;;;;5059378;28;19951;-81
2022/06/28 08:37:39;;;;;;;;;;;;;;;;;;5066195;28;20410;-82
2022/06/28 08:40:05;;;;;;;;;;;;;;;;;;5049649;28;19944;-82
2022/06/28 08:42:31;;;;;;;;;;;;;;;;;;5064678;28;20413;-82
2022/06/28 08:44:58;;;;;;;;;;;;;;;;;;5058010;28;20456;-82
2022/06/28 08:47:24;;;;;;;;;;;;;;;;;;5056692;28;19963;-82
2022/06/28 08:49:50;;;;;;;;;;;;;;;;;;5060813;28;19952;-82
2022/06/28 08:52:17;;;;;;;;;;;;;;;;;;5057540;28;19947;-82
2022/06/28 08:54:43;;;;;;;;;;;;;;;;;;5062795;28;19955;-81
2022/06/28 08:57:09;;;;;;;;;;;;;;;;;;5056078;28;20018;-83
2022/06/28 08:59:36;;;;;;;;;;;;;;;;;;5049929;28;19959;-81
2022/06/28 09:02:02;;;;;;;;;;;;;;;;;;5061442;28;20363;-81
2022/06/28 09:04:28;;;;;;;;;;;;;;;;;;5051939;28;19971;-82
2022/06/28 09:06:55;;;;;;;;;;;;;;;;;;5065590;28;19997;-80
2022/06/28 09:09:21;;;;;;;;;;;;;;;;;;5056503;28;19948;-81
2022/06/28 09:11:47;;;;;;;;;;;;;;;;;;5066779;28;20384;-80
2022/06/28 09:14:13;;;;;;;;;;;;;;;;;;5040677;28;19943;-81
2022/06/28 09:16:39;;;;;;;;;;;;;;;;;;5035298;28;20008;-81
2022/06/28 09:19:08;;;;;;;;;;;;;;;;;;5057815;28;19974;-81
2022/06/28 09:21:35;;;;;;;;;;;;;;;;;;5059570;28;19951;-81
2022/06/28 09:24:02;;;;;;;;;;;;;;;;;;5062273;28;20403;-81
2022/06/28 09:26:28;;;;;;;;;;;;;;;;;;5061310;28;19948;-81
2022/06/28 09:28:54;;;;;;;;;;;;;;;;;;5055303;28;19967;-81
2022/06/28 09:31:20;;;;;;;;;;;;;;;;;;5063801;28;20321;-81
2022/06/28 09:33:46;;;;;;;;;;;;;;;;;;5064458;28;19951;-81
2022/06/28 09:36:13;;;;;;;;;;;;;;;;;;5066955;28;19955;-78
2022/06/28 09:38:39;;;;;;;;;;;;;;;;;;5066617;28;20361;-82
2022/06/28 09:41:05;;;;;;;;;;;;;;;;;;5067058;28;19951;-81
2022/06/28 09:43:32;;;;;;;;;;;;;;;;;;5057564;28;19959;-81
2022/06/28 09:45:58;;;;;;;;;;;;;;;;;;5060159;28;20353;-81
2022/06/28 09:48:24;;;;;;;;;;;;;;;;;;5054100;28;19952;-82
2022/06/28 09:50:50;;;;;;;;;;;;;;;;;;5065761;28;19955;-82
2022/06/28 09:53:17;;;;;;;;;;;;;;;;;;5065436;28;19992;-82
2022/06/28 09:55:43;;;;;;;;;;;;;;;;;;5053345;28;19975;-82
2022/06/28 09:58:09;;;;;;;;;;;;;;;;;;5058500;28;20384;-81
2022/06/28 10:00:39;;;;;;;;;;;;;;;;;;5061506;28;19948;-81
2022/06/28 10:03:05;;;;;;;;;;;;;;;;;;5061425;28;20381;-82
2022/06/28 10:05:31;;;;;;;;;;;;;;;;;;5059372;28;19920;-81
2022/06/28 10:07:57;;;;;;;;;;;;;;;;;;5067069;28;20422;-81
2022/06/28 10:10:24;;;;;;;;;;;;;;;;;;5065036;28;19955;-81
2022/06/28 10:15:35;;;;;;;;;;;;;;;;;;5051611;28;19943;-81
2022/06/28 10:18:01;;;;;;;;;;;;;;;;;;5061545;28;19956;-81
2022/06/28 10:20:27;;;;;;;;;;;;;;;;;;5058287;28;19951;-81
2022/06/28 10:22:54;;;;;;;;;;;;;;;;;;5048845;28;20001;-82
2022/06/28 10:25:22;;;;;;;;;;;;;;;;;;5063475;28;19970;-82
2022/06/28 10:27:48;;;;;;;;;;;;;;;;;;5059040;28;20378;-82
2022/06/28 10:30:14;;;;;;;;;;;;;;;;;;5064797;28;20445;-80
2022/06/28 10:32:40;;;;;;;;;;;;;;;;;;5064285;28;20373;-82
2022/06/28 10:35:06;;;;;;;;;;;;;;;;;;5049537;28;19992;-82
2022/06/28 10:37:33;;;;;;;;;;;;;;;;;;5046287;28;21538;-81
2022/06/28 10:39:59;;;;;;;;;;;;;;;;;;5065281;28;19941;-82
2022/06/28 10:42:25;;;;;;;;;;;;;;;;;;5063003;28;20357;-81
2022/06/28 10:44:51;;;;;;;;;;;;;;;;;;5058808;28;19956;-81
2022/06/28 10:47:18;;;;;;;;;;;;;;;;;;5061265;28;19948;-82
2022/06/28 10:49:52;;;;;;;;;;;;;;;;;;5057217;28;19949;-82
2022/06/28 10:52:18;;;;;;;;;;;;;;;;;;5060397;28;19953;-81
2022/06/28 10:54:45;;;;;;;;;;;;;;;;;;5064592;28;20383;-81
2022/06/28 10:57:11;;;;;;;;;;;;;;;;;;5071396;28;19952;-82
2022/06/28 10:59:37;;;;;;;;;;;;;;;;;;5059206;28;20373;-82
2022/06/28 11:02:03;;;;;;;;;;;;;;;;;;5070186;28;20347;-82
2022/06/28 11:04:30;;;;;;;;;;;;;;;;;;5053635;28;20414;-82
2022/06/28 11:06:56;;;;;;;;;;;;;;;;;;5062826;28;19959;-82
2022/06/28 11:09:22;;;;;;;;;;;;;;;;;;5069337;28;19956;-82
2022/06/28 11:11:48;;;;;;;;;;;;;;;;;;5070397;28;19951;-82
2022/06/28 11:14:14;;;;;;;;;;;;;;;;;;5051284;28;19959;-82
2022/06/28 11:16:41;;;;;;;;;;;;;;;;;;5055466;28;19995;-82
2022/06/28 11:19:07;;;;;;;;;;;;;;;;;;5058345;28;19949;-82
2022/06/28 11:21:33;;;;;;;;;;;;;;;;;;5047145;28;19920;-82
2022/06/28 11:23:59;;;;;;;;;;;;;;;;;;5053716;28;19940;-82
2022/06/28 11:29:10;;;;;;;;;;;;;;;;;;5066395;28;19944;-82
2022/06/28 11:31:36;;;;;;;;;;;;;;;;;;5066834;28;19944;-82
2022/06/28 11:34:02;;;;;;;;;;;;;;;;;;5063458;28;19948;-82
2022/06/28 11:36:31;;;;;;;;;;;;;;;;;;5059541;28;20325;-82
2022/06/28 11:38:57;;;;;;;;;;;;;;;;;;5062736;28;19952;-82
2022/06/28 11:41:24;;;;;;;;;;;;;;;;;;5069142;28;19948;-82
2022/06/28 11:43:50;;;;;;;;;;;;;;;;;;5067568;28;20334;-82
2022/06/28 11:46:16;;;;;;;;;;;;;;;;;;5060938;28;19967;-82
2022/06/28 11:48:42;;;;;;;;;;;;;;;;;;5062482;28;19951;-83
2022/06/28 11:51:08;;;;;;;;;;;;;;;;;;5067004;28;19978;-82
2022/06/28 11:53:35;;;;;;;;;;;;;;;;;;5051414;28;19925;-82
2022/06/28 11:56:01;;;;;;;;;;;;;;;;;;5056659;28;19972;-82
2022/06/28 11:58:27;;;;;;;;;;;;;;;;;;5060712;28;19959;-82
2022/06/28 12:00:53;;;;;;;;;;;;;;;;;;5052477;28;19955;-82
2022/06/28 12:03:19;;;;;;;;;;;;;;;;;;5025616;28;19940;-81
2022/06/28 12:05:45;;;;;;;;;;;;;;;;;;5057525;28;19956;-82
2022/06/28 12:08:12;;;;;;;;;;;;;;;;;;5067813;28;19940;-82
2022/06/28 12:10:38;;;;;;;;;;;;;;;;;;5066204;28;19966;-82
2022/06/28 12:13:04;;;;;;;;;;;;;;;;;;5062277;28;19951;-81
2022/06/28 12:15:30;;;;;;;;;;;;;;;;;;5062061;28;19952;-81
2022/06/28 12:17:57;;;;;;;;;;;;;;;;;;5058480;28;19964;-81
2022/06/28 12:20:23;;;;;;;;;;;;;;;;;;5052285;28;20036;-81
2022/06/28 12:22:49;;;;;;;;;;;;;;;;;;5065059;28;19920;-81
2022/06/28 12:25:15;;;;;;;;;;;;;;;;;;5062443;28;19951;-81
2022/06/28 12:27:44;;;;;;;;;;;;;;;;;;5063516;28;20378;-81
2022/06/28 12:30:10;;;;;;;;;;;;;;;;;;5064552;28;20144;-81
2022/06/28 12:32:36;;;;;;;;;;;;;;;;;;5069284;28;19913;-82
2022/06/28 12:35:02;;;;;;;;;;;;;;;;;;5050371;28;19952;-81
2022/06/28 12:37:29;;;;;;;;;;;;;;;;;;5062784;28;19966;-82
2022/06/28 12:39:55;;;;;;;;;;;;;;;;;;5060809;28;19955;-82
2022/06/28 12:42:21;;;;;;;;;;;;;;;;;;5066928;28;20348;-82
2022/06/28 12:44:47;;;;;;;;;;;;;;;;;;5056870;28;19952;-81
2022/06/28 12:47:13;;;;;;;;;;;;;;;;;;5053549;28;19952;-82
2022/06/28 12:49:40;;;;;;;;;;;;;;;;;;5056915;28;20006;-82
2022/06/28 12:52:06;;;;;;;;;;;;;;;;;;5055070;28;19959;-82
2022/06/28 12:54:32;;;;;;;;;;;;;;;;;;5061812;28;20357;-82
2022/06/28 12:56:58;;;;;;;;;;;;;;;;;;5057242;28;20421;-82
2022/06/28 12:59:24;;;;;;;;;;;;;;;;;;5062189;28;19956;-81
2022/06/28 13:01:50;;;;;;;;;;;;;;;;;;5055997;28;19955;-82
2022/06/28 13:04:17;;;;;;;;;;;;;;;;;;5062130;28;19951;-81
2022/06/28 13:06:44;;;;;;;;;;;;;;;;;;5065543;28;20344;-82
2022/06/28 13:09:10;;;;;;;;;;;;;;;;;;5080446;28;20396;-82
2022/06/28 13:11:36;;;;;;;;;;;;;;;;;;5066302;28;19956;-82
2022/06/28 13:14:02;;;;;;;;;;;;;;;;;;5068465;28;19947;-82
2022/06/28 13:16:29;;;;;;;;;;;;;;;;;;5055813;28;20001;-82
2022/06/28 13:18:55;;;;;;;;;;;;;;;;;;5061182;28;19952;-81
2022/06/28 13:21:21;;;;;;;;;;;;;;;;;;5059385;28;20308;-82
2022/06/28 13:23:48;;;;;;;;;;;;;;;;;;5066094;28;19955;-82
2022/06/28 13:26:14;;;;;;;;;;;;;;;;;;5067351;28;19987;-82
2022/06/28 13:28:40;;;;;;;;;;;;;;;;;;5051424;28;19944;-83
2022/06/28 13:31:07;;;;;;;;;;;;;;;;;;5064011;28;19960;-82
2022/06/28 13:33:33;;;;;;;;;;;;;;;;;;5066891;28;19974;-82
2022/06/28 13:36:00;;;;;;;;;;;;;;;;;;5055960;28;19940;-83
2022/06/28 13:38:26;;;;;;;;;;;;;;;;;;5030789;28;19982;-82
2022/06/28 13:40:52;;;;;;;;;;;;;;;;;;5055023;28;19916;-82
2022/06/28 13:43:34;;;;;;;;;;;;;;;;;;5058825;28;19940;-82
2022/06/28 13:46:00;;;;;;;;;;;;;;;;;;5075902;28;19952;-82
2022/06/28 13:48:26;;;;;;;;;;;;;;;;;;5065564;28;19997;-82
2022/06/28 13:50:52;;;;;;;;;;;;;;;;;;5063121;28;20029;-82
2022/06/28 13:53:19;;;;;;;;;;;;;;;;;;5049520;28;19952;-82
2022/06/28 13:55:46;;;;;;;;;;;;;;;;;;5063683;28;19956;-82
2022/06/28 13:58:15;;;;;;;;;;;;;;;;;;5056680;28;19955;-82
2022/06/28 14:00:41;;;;;;;;;;;;;;;;;;5058910;28;20340;-82
2022/06/28 14:03:07;;;;;;;;;;;;;;;;;;5053812;28;20010;-82
2022/06/28 14:05:34;;;;;;;;;;;;;;;;;;5053023;28;19976;-82
2022/06/28 14:08:00;;;;;;;;;;;;;;;;;;5062781;28;19919;-82
2022/06/28 14:10:26;;;;;;;;;;;;;;;;;;5058357;28;19960;-82
2022/06/28 14:12:53;;;;;;;;;;;;;;;;;;5053681;28;19955;-83
2022/06/28 14:15:19;;;;;;;;;;;;;;;;;;5047820;28;19956;-82
2022/06/28 14:17:45;;;;;;;;;;;;;;;;;;5062997;28;20030;-83
2022/06/28 14:20:11;;;;;;;;;;;;;;;;;;5052752;28;19982;-82
2022/06/28 14:22:37;;;;;;;;;;;;;;;;;;5063864;28;19944;-82
2022/06/28 14:25:04;;;;;;;;;;;;;;;;;;5064907;28;20376;-82
2022/06/28 14:27:30;;;;;;;;;;;;;;;;;;5051981;28;19960;-82
2022/06/28 14:29:56;;;;;;;;;;;;;;;;;;5066156;28;19944;-82
2022/06/28 14:32:22;;;;;;;;;;;;;;;;;;5068635;28;20552;-82
2022/06/28 14:34:48;;;;;;;;;;;;;;;;;;5070160;28;19944;-82
2022/06/28 14:37:15;;;;;;;;;;;;;;;;;;5068585;28;20457;-78
2022/06/28 14:39:41;;;;;;;;;;;;;;;;;;5060650;28;19948;-82
2022/06/28 14:42:07;;;;;;;;;;;;;;;;;;5064983;28;19947;-82
2022/06/28 14:44:33;;;;;;;;;;;;;;;;;;5062351;28;20368;-83
2022/06/28 14:46:59;;;;;;;;;;;;;;;;;;5063893;28;19939;-83
2022/06/28 14:49:26;;;;;;;;;;;;;;;;;;5055825;28;19948;-82
2022/06/28 14:51:52;;;;;;;;;;;;;;;;;;5063601;28;20302;-82
2022/06/28 14:54:18;;;;;;;;;;;;;;;;;;5068460;28;19955;-81
2022/06/28 14:56:44;;;;;;;;;;;;;;;;;;5067217;28;19978;-82
2022/06/28 14:59:10;;;;;;;;;;;;;;;;;;5061898;28;19959;-82
2022/06/28 15:01:37;;;;;;;;;;;;;;;;;;5055286;28;19964;-82
2022/06/28 15:04:03;;;;;;;;;;;;;;;;;;5063176;28;19940;-82
2022/06/28 15:06:29;;;;;;;;;;;;;;;;;;5059284;28;19940;-84
2022/06/28 15:08:56;;;;;;;;;;;;;;;;;;5057774;28;19963;-83
2022/06/28 15:11:22;;;;;;;;;;;;;;;;;;5059752;28;19944;-83
2022/06/28 15:13:48;;;;;;;;;;;;;;;;;;5070104;28;19949;-83
2022/06/28 15:16:14;;;;;;;;;;;;;;;;;;5065084;28;20365;-84
2022/06/28 15:18:41;;;;;;;;;;;;;;;;;;5060761;28;20775;-84
2022/06/28 15:30:51;;;;;;;;;;;;;;;;;;5052229;28;19956;-84
2022/06/28 15:32:08;;;;;;;;;;;;;;;;;;5054983;28;19913;-84
2022/06/28 15:34:34;;;;;;;;;;;;;;;;;;5053461;28;19966;-84
2022/06/28 15:37:01;;;;;;;;;;;;;;;;;;5067831;28;19951;-84
2022/06/28 15:39:27;;;;;;;;;;;;;;;;;;5056277;28;19963;-85
2022/06/28 15:41:55;;;;;;;;;;;;;;;;;;5067258;28;19940;-82
2022/06/28 15:44:21;;;;;;;;;;;;;;;;;;5061686;28;20548;-78
2022/06/28 15:46:49;;;;;;;;;;;;;;;;;;5062564;28;19951;-79
2022/06/28 15:49:15;;;;;;;;;;;;;;;;;;5055170;28;19925;-76
2022/06/28 15:51:41;;;;;;;;;;;;;;;;;;5057025;28;20407;-78
2022/06/28 15:54:07;;;;;;;;;;;;;;;;;;5056371;28;19955;-76
2022/06/28 15:56:34;;;;;;;;;;;;;;;;;;5056239;28;19955;-76
2022/06/28 15:59:00;;;;;;;;;;;;;;;;;;5055108;28;19967;-76
2022/06/28 16:01:26;;;;;;;;;;;;;;;;;;5058065;28;19956;-76
2022/06/28 16:03:52;;;;;;;;;;;;;;;;;;5047959;28;20492;-77
2022/06/28 16:06:18;;;;;;;;;;;;;;;;;;5055631;28;19948;-77
2022/06/28 16:08:44;;;;;;;;;;;;;;;;;;5065027;28;19950;-77
2022/06/28 16:11:11;;;;;;;;;;;;;;;;;;5057398;28;19956;-77
2022/06/28 16:13:37;;;;;;;;;;;;;;;;;;5065621;28;20320;-76
2022/06/28 16:16:03;;;;;;;;;;;;;;;;;;5067932;28;19955;-76
2022/06/28 16:18:29;;;;;;;;;;;;;;;;;;5063861;28;19971;-79
2022/06/28 16:20:55;;;;;;;;;;;;;;;;;;5059305;28;19948;-77
2022/06/28 16:23:22;;;;;;;;;;;;;;;;;;5061307;28;19956;-77
2022/06/28 16:25:48;;;;;;;;;;;;;;;;;;5061473;28;19963;-76
2022/06/28 16:28:14;;;;;;;;;;;;;;;;;;5063096;28;20554;-77
2022/06/28 16:30:40;;;;;;;;;;;;;;;;;;5060308;28;19948;-77
2022/06/28 16:33:07;;;;;;;;;;;;;;;;;;5062609;28;19953;-78
2022/06/28 16:35:34;;;;;;;;;;;;;;;;;;5058606;28;20306;-77
2022/06/28 16:38:02;;;;;;;;;;;;;;;;;;5061934;28;19951;-77
2022/06/28 16:40:28;;;;;;;;;;;;;;;;;;5057603;28;19948;-77
2022/06/28 16:42:54;;;;;;;;;;;;;;;;;;5059627;28;19940;-77
2022/06/28 16:45:20;;;;;;;;;;;;;;;;;;5064516;28;19947;-77
2022/06/28 16:47:46;;;;;;;;;;;;;;;;;;5064353;28;19948;-77
2022/06/28 16:50:12;;;;;;;;;;;;;;;;;;5068176;28;19944;-77
2022/06/28 16:52:39;;;;;;;;;;;;;;;;;;5060264;28;20036;-77
2022/06/28 16:55:05;;;;;;;;;;;;;;;;;;5050661;28;19952;-78
2022/06/28 16:57:31;;;;;;;;;;;;;;;;;;5048427;28;20400;-77
2022/06/28 16:59:57;;;;;;;;;;;;;;;;;;5060903;28;19955;-77
2022/06/28 17:02:24;;;;;;;;;;;;;;;;;;5059041;28;19948;-77